createdAt,value
2017-10-09T00:00:02.778Z,980.60
2017-10-09T00:01:55.639Z,980.58
2017-10-09T00:02:55.507Z,980.57
2017-10-09T00:04:48.575Z,980.58
2017-10-09T00:05:48.519Z,980.58
2017-10-09T00:07:41.421Z,980.59
2017-10-09T00:08:41.153Z,980.61
2017-10-09T00:10:33.924Z,980.63
2017-10-09T00:11:33.806Z,980.59
2017-10-09T00:13:26.608Z,980.61
2017-10-09T00:14:26.481Z,980.66
2017-10-09T00:16:19.353Z,980.68
2017-10-09T00:17:19.225Z,980.65
2017-10-09T00:19:12.001Z,980.65
2017-10-09T00:20:12.083Z,980.59
2017-10-09T00:22:04.650Z,980.65
2017-10-09T00:23:04.521Z,980.60
2017-10-09T00:24:57.370Z,980.62
2017-10-09T00:25:57.279Z,980.61
2017-10-09T00:27:50.084Z,980.61
2017-10-09T00:28:49.954Z,980.61
2017-10-09T00:30:42.725Z,980.63
2017-10-09T00:31:42.632Z,980.63
2017-10-09T00:33:35.995Z,980.59
2017-10-09T00:34:35.820Z,980.59
2017-10-09T00:36:28.601Z,980.57
2017-10-09T00:37:28.468Z,980.55
2017-10-09T00:39:21.318Z,980.53
2017-10-09T00:40:21.234Z,980.53
2017-10-09T00:42:14.078Z,980.53
2017-10-09T00:43:14.008Z,980.53
2017-10-09T00:45:06.646Z,980.51
2017-10-09T00:46:06.545Z,980.49
2017-10-09T00:47:59.348Z,980.49
2017-10-09T00:48:59.217Z,980.50
2017-10-09T00:50:52.084Z,980.45
2017-10-09T00:51:51.996Z,980.47
2017-10-09T00:53:44.902Z,980.44
2017-10-09T00:54:44.673Z,980.45
2017-10-09T00:56:38.061Z,980.41
2017-10-09T00:57:37.852Z,980.41
2017-10-09T00:59:30.597Z,980.43
2017-10-09T01:00:30.518Z,980.41
2017-10-09T01:02:23.345Z,980.44
2017-10-09T01:03:23.219Z,980.44
2017-10-09T01:05:16.065Z,980.47
2017-10-09T01:06:15.883Z,980.47
2017-10-09T01:08:09.682Z,980.49
2017-10-09T01:09:09.555Z,980.52
2017-10-09T01:11:02.422Z,980.53
2017-10-09T01:12:02.183Z,980.54
2017-10-09T01:13:54.932Z,980.56
2017-10-09T01:14:54.853Z,980.54
2017-10-09T01:16:47.710Z,980.55
2017-10-09T01:17:47.549Z,980.54
2017-10-09T01:19:40.306Z,980.55
2017-10-09T01:20:40.276Z,980.53
2017-10-09T01:22:32.986Z,980.53
2017-10-09T01:23:32.825Z,980.47
2017-10-09T01:25:25.565Z,980.46
2017-10-09T01:26:25.482Z,980.44
2017-10-09T01:28:18.485Z,980.42
2017-10-09T01:29:18.203Z,980.40
2017-10-09T01:31:11.134Z,980.35
2017-10-09T01:32:10.857Z,980.35
2017-10-09T01:34:03.705Z,980.37
2017-10-09T01:35:03.500Z,980.39
2017-10-09T01:36:56.397Z,980.39
2017-10-09T01:37:56.266Z,980.44
2017-10-09T01:39:49.090Z,980.41
2017-10-09T01:40:48.998Z,980.36
2017-10-09T01:42:42.260Z,980.31
2017-10-09T01:43:41.715Z,980.30
2017-10-09T01:45:34.430Z,980.31
2017-10-09T01:46:34.301Z,980.31
2017-10-09T01:48:27.096Z,980.29
2017-10-09T01:49:26.966Z,980.31
2017-10-09T01:51:19.759Z,980.29
2017-10-09T01:52:19.630Z,980.29
2017-10-09T01:54:12.412Z,980.19
2017-10-09T01:55:12.444Z,980.21
2017-10-09T01:57:05.135Z,980.19
2017-10-09T01:58:04.977Z,980.21
2017-10-09T01:59:57.740Z,980.22
2017-10-09T02:00:57.656Z,980.17
2017-10-09T02:02:50.449Z,980.15
2017-10-09T02:03:50.319Z,980.17
2017-10-09T02:05:43.135Z,980.22
2017-10-09T02:06:43.064Z,980.24
2017-10-09T02:08:35.777Z,980.29
2017-10-09T02:09:35.637Z,980.32
2017-10-09T02:11:28.414Z,980.34
2017-10-09T02:12:28.285Z,980.35
2017-10-09T02:14:21.331Z,980.32
2017-10-09T02:15:21.249Z,980.32
2017-10-09T02:17:14.098Z,980.37
2017-10-09T02:18:14.034Z,980.41
2017-10-09T02:20:06.651Z,980.41
2017-10-09T02:21:06.557Z,980.41
2017-10-09T02:22:59.363Z,980.41
2017-10-09T02:23:59.236Z,980.44
2017-10-09T02:25:52.018Z,980.45
2017-10-09T02:26:51.929Z,980.42
2017-10-09T02:28:44.808Z,980.47
2017-10-09T02:29:44.594Z,980.45
2017-10-09T02:31:37.384Z,980.44
2017-10-09T02:32:37.380Z,980.40
2017-10-09T02:34:30.005Z,980.37
2017-10-09T02:35:29.918Z,980.43
2017-10-09T02:37:22.724Z,980.41
2017-10-09T02:38:22.590Z,980.44
2017-10-09T02:40:15.401Z,980.43
2017-10-09T02:41:15.257Z,980.41
2017-10-09T02:43:08.104Z,980.39
2017-10-09T02:44:08.063Z,980.40
2017-10-09T02:46:00.657Z,980.40
2017-10-09T02:47:00.581Z,980.35
2017-10-09T02:48:53.361Z,980.33
2017-10-09T02:49:53.231Z,980.31
2017-10-09T02:51:46.032Z,980.32
2017-10-09T02:52:45.902Z,980.33
2017-10-09T02:54:38.756Z,980.37
2017-10-09T02:55:38.539Z,980.39
2017-10-09T02:57:31.314Z,980.43
2017-10-09T02:58:31.199Z,980.42
2017-10-09T03:00:24.134Z,980.39
2017-10-09T03:01:24.053Z,980.41
2017-10-09T03:03:16.888Z,980.39
2017-10-09T03:04:16.733Z,980.39
2017-10-09T03:06:09.510Z,980.40
2017-10-09T03:07:09.403Z,980.40
2017-10-09T03:09:02.162Z,980.42
2017-10-09T03:10:02.024Z,980.39
2017-10-09T03:11:54.978Z,980.43
2017-10-09T03:12:54.851Z,980.43
2017-10-09T03:14:47.719Z,980.45
2017-10-09T03:15:47.626Z,980.46
2017-10-09T03:17:40.366Z,980.49
2017-10-09T03:18:40.223Z,980.49
2017-10-09T03:20:32.968Z,980.52
2017-10-09T03:21:32.904Z,980.48
2017-10-09T03:23:25.671Z,980.49
2017-10-09T03:24:25.545Z,980.46
2017-10-09T03:26:18.870Z,980.51
2017-10-09T03:27:18.732Z,980.49
2017-10-09T03:29:11.701Z,980.56
2017-10-09T03:30:11.391Z,980.55
2017-10-09T03:32:04.227Z,980.56
2017-10-09T03:33:04.037Z,980.55
2017-10-09T03:34:56.774Z,980.59
2017-10-09T03:35:56.690Z,980.55
2017-10-09T03:37:49.695Z,980.56
2017-10-09T03:38:49.511Z,980.54
2017-10-09T03:40:42.337Z,980.55
2017-10-09T03:41:42.196Z,980.52
2017-10-09T03:43:34.982Z,980.56
2017-10-09T03:44:34.834Z,980.55
2017-10-09T03:46:27.589Z,980.61
2017-10-09T03:47:27.504Z,980.60
2017-10-09T03:49:20.341Z,980.64
2017-10-09T03:50:20.209Z,980.60
2017-10-09T03:52:13.368Z,980.62
2017-10-09T03:53:12.883Z,980.59
2017-10-09T03:55:05.678Z,980.61
2017-10-09T03:56:05.526Z,980.59
2017-10-09T03:57:58.325Z,980.58
2017-10-09T03:58:58.198Z,980.60
2017-10-09T04:00:50.971Z,980.61
2017-10-09T04:01:50.888Z,980.61
2017-10-09T04:03:43.691Z,980.64
2017-10-09T04:04:43.558Z,980.66
2017-10-09T04:06:36.286Z,980.69
2017-10-09T04:07:36.202Z,980.70
2017-10-09T04:09:29.046Z,980.68
2017-10-09T04:10:28.920Z,980.68
2017-10-09T04:12:22.016Z,980.68
2017-10-09T04:13:21.881Z,980.70
2017-10-09T04:15:14.625Z,980.67
2017-10-09T04:16:14.543Z,980.69
2017-10-09T04:18:07.381Z,980.69
2017-10-09T04:19:07.278Z,980.74
2017-10-09T04:20:59.972Z,980.77
2017-10-09T04:21:59.891Z,980.76
2017-10-09T04:23:52.739Z,980.79
2017-10-09T04:24:52.611Z,980.80
2017-10-09T04:26:45.419Z,980.81
2017-10-09T04:27:45.290Z,980.80
2017-10-09T04:29:38.155Z,980.78
2017-10-09T04:30:37.938Z,980.81
2017-10-09T04:32:30.721Z,980.81
2017-10-09T04:33:30.595Z,980.79
2017-10-09T04:35:23.342Z,980.78
2017-10-09T04:36:23.261Z,980.78
2017-10-09T04:38:16.325Z,980.79
2017-10-09T04:39:16.010Z,980.78
2017-10-09T04:41:08.704Z,980.80
2017-10-09T04:42:08.591Z,980.80
2017-10-09T04:44:01.426Z,980.77
2017-10-09T04:45:01.285Z,980.79
2017-10-09T04:46:54.031Z,980.78
2017-10-09T04:47:53.944Z,980.77
2017-10-09T04:49:46.755Z,980.76
2017-10-09T04:50:46.627Z,980.74
2017-10-09T04:52:39.480Z,980.78
2017-10-09T04:53:39.294Z,980.76
2017-10-09T04:55:32.005Z,980.74
2017-10-09T04:56:31.917Z,980.73
2017-10-09T04:58:24.723Z,980.78
2017-10-09T04:59:24.593Z,980.75
2017-10-09T05:01:17.355Z,980.70
2017-10-09T05:02:17.253Z,980.67
2017-10-09T05:04:10.057Z,980.72
2017-10-09T05:05:10.060Z,980.75
2017-10-09T05:07:02.649Z,980.75
2017-10-09T05:08:02.555Z,980.74
2017-10-09T05:09:55.362Z,980.75
2017-10-09T05:10:55.234Z,980.76
2017-10-09T05:12:48.628Z,980.80
2017-10-09T05:13:48.490Z,980.83
2017-10-09T05:15:41.254Z,980.81
2017-10-09T05:16:41.293Z,980.81
2017-10-09T05:18:33.960Z,980.80
2017-10-09T05:19:33.801Z,980.79
2017-10-09T05:21:26.539Z,980.83
2017-10-09T05:22:26.458Z,980.86
2017-10-09T05:24:19.272Z,980.88
2017-10-09T05:25:19.144Z,980.87
2017-10-09T05:27:11.984Z,980.92
2017-10-09T05:28:11.820Z,980.94
2017-10-09T05:30:05.040Z,980.95
2017-10-09T05:31:05.014Z,980.93
2017-10-09T05:32:57.750Z,980.89
2017-10-09T05:33:57.616Z,980.92
2017-10-09T05:35:50.437Z,980.89
2017-10-09T05:36:50.354Z,980.91
2017-10-09T05:38:43.214Z,980.95
2017-10-09T05:39:43.059Z,980.95
2017-10-09T05:41:35.808Z,981.00
2017-10-09T05:42:35.686Z,980.96
2017-10-09T05:44:28.669Z,980.97
2017-10-09T05:45:28.408Z,980.97
2017-10-09T05:47:21.184Z,981.00
2017-10-09T05:48:21.056Z,981.03
2017-10-09T05:50:13.810Z,981.01
2017-10-09T05:51:13.723Z,981.07
2017-10-09T05:53:06.496Z,981.05
2017-10-09T05:54:06.368Z,981.04
2017-10-09T05:55:59.109Z,981.09
2017-10-09T05:56:59.036Z,981.07
2017-10-09T05:58:51.894Z,981.08
2017-10-09T05:59:51.763Z,981.12
2017-10-09T06:01:44.533Z,981.10
2017-10-09T06:02:44.443Z,981.11
2017-10-09T06:04:37.671Z,981.12
2017-10-09T06:05:37.104Z,981.13
2017-10-09T06:07:30.368Z,981.10
2017-10-09T06:08:30.237Z,981.14
2017-10-09T06:10:23.577Z,981.11
2017-10-09T06:11:23.406Z,981.16
2017-10-09T06:13:16.216Z,981.15
2017-10-09T06:14:16.150Z,981.15
2017-10-09T06:16:08.869Z,981.23
2017-10-09T06:17:08.743Z,981.24
2017-10-09T06:19:01.521Z,981.21
2017-10-09T06:20:01.384Z,981.23
2017-10-09T06:21:54.243Z,981.21
2017-10-09T06:22:54.158Z,981.23
2017-10-09T06:24:47.007Z,981.23
2017-10-09T06:25:46.803Z,981.25
2017-10-09T06:27:39.626Z,981.23
2017-10-09T06:28:39.456Z,981.24
2017-10-09T06:30:32.263Z,981.28
2017-10-09T06:31:32.185Z,981.28
2017-10-09T06:33:24.962Z,981.32
2017-10-09T06:34:24.832Z,981.27
2017-10-09T06:36:17.571Z,981.32
2017-10-09T06:37:17.502Z,981.27
2017-10-09T06:39:10.618Z,981.32
2017-10-09T06:40:10.233Z,981.27
2017-10-09T06:42:02.883Z,981.39
2017-10-09T06:43:02.803Z,981.34
2017-10-09T06:44:55.597Z,981.39
2017-10-09T06:45:55.462Z,981.38
2017-10-09T06:47:48.318Z,981.37
2017-10-09T06:48:48.206Z,981.36
2017-10-09T06:50:40.937Z,981.37
2017-10-09T06:51:40.848Z,981.39
2017-10-09T06:53:33.632Z,981.39
2017-10-09T06:54:33.492Z,981.39
2017-10-09T06:56:26.319Z,981.37
2017-10-09T06:57:26.237Z,981.40
2017-10-09T06:59:19.031Z,981.43
2017-10-09T07:00:18.903Z,981.48
2017-10-09T07:02:11.713Z,981.52
2017-10-09T07:03:11.633Z,981.52
2017-10-09T07:05:04.837Z,981.48
2017-10-09T07:06:04.701Z,981.50
2017-10-09T07:07:57.490Z,981.48
2017-10-09T07:08:57.367Z,981.50
2017-10-09T07:10:50.212Z,981.45
2017-10-09T07:11:50.125Z,981.47
2017-10-09T07:13:43.213Z,981.49
2017-10-09T07:14:42.819Z,981.47
2017-10-09T07:16:35.582Z,981.47
2017-10-09T07:17:35.454Z,981.46
2017-10-09T07:19:28.238Z,981.48
2017-10-09T07:20:28.110Z,981.51
2017-10-09T07:22:21.491Z,981.49
2017-10-09T07:23:21.406Z,981.48
2017-10-09T07:25:14.225Z,981.52
2017-10-09T07:26:14.390Z,981.46
2017-10-09T07:28:06.887Z,981.50
2017-10-09T07:29:06.777Z,981.51
2017-10-09T07:30:59.502Z,981.49
2017-10-09T07:31:59.417Z,981.51
2017-10-09T07:33:52.322Z,981.51
2017-10-09T07:34:52.192Z,981.55
2017-10-09T07:36:45.352Z,981.51
2017-10-09T07:37:45.019Z,981.53
2017-10-09T07:39:38.028Z,981.57
2017-10-09T07:40:37.832Z,981.57
2017-10-09T07:42:30.515Z,981.62
2017-10-09T07:43:30.440Z,981.62
2017-10-09T07:45:23.167Z,981.69
2017-10-09T07:46:23.002Z,981.66
2017-10-09T07:48:15.834Z,981.66
2017-10-09T07:49:15.704Z,981.65
2017-10-09T07:51:09.328Z,981.67
2017-10-09T07:52:08.414Z,981.66
2017-10-09T07:54:01.087Z,981.72
2017-10-09T07:55:00.959Z,981.73
2017-10-09T07:56:53.699Z,981.69
2017-10-09T07:57:53.614Z,981.70
2017-10-09T07:59:46.984Z,981.69
2017-10-09T08:00:46.889Z,981.66
2017-10-09T08:02:40.437Z,981.67
2017-10-09T08:03:40.115Z,981.67
2017-10-09T08:05:32.779Z,981.72
2017-10-09T08:06:32.650Z,981.70
2017-10-09T08:08:25.414Z,981.73
2017-10-09T08:09:25.328Z,981.73
2017-10-09T08:11:18.697Z,981.74
2017-10-09T08:12:18.565Z,981.77
2017-10-09T08:14:11.334Z,981.76
2017-10-09T08:15:11.444Z,981.78
2017-10-09T08:17:04.057Z,981.77
2017-10-09T08:18:03.899Z,981.74
2017-10-09T08:19:56.752Z,981.73
2017-10-09T08:20:56.608Z,981.73
2017-10-09T08:22:49.603Z,981.78
2017-10-09T08:23:49.314Z,981.71
2017-10-09T08:25:42.448Z,981.71
2017-10-09T08:26:42.371Z,981.72
2017-10-09T08:28:35.218Z,981.69
2017-10-09T08:29:35.108Z,981.74
2017-10-09T08:31:27.884Z,981.77
2017-10-09T08:32:27.758Z,981.75
2017-10-09T08:34:21.044Z,981.74
2017-10-09T08:35:20.944Z,981.72
2017-10-09T08:37:14.470Z,981.70
2017-10-09T08:38:13.611Z,981.70
2017-10-09T08:40:06.354Z,981.73
2017-10-09T08:41:06.290Z,981.74
2017-10-09T08:42:59.050Z,981.69
2017-10-09T08:43:58.923Z,981.69
2017-10-09T08:45:51.946Z,981.64
2017-10-09T08:46:51.860Z,981.69
2017-10-09T08:48:44.766Z,981.63
2017-10-09T08:49:44.526Z,981.62
2017-10-09T08:51:37.796Z,981.66
2017-10-09T08:52:38.120Z,981.61
2017-10-09T08:54:30.002Z,981.62
2017-10-09T08:55:29.873Z,981.62
2017-10-09T08:57:22.680Z,981.61
2017-10-09T08:58:22.536Z,981.62
2017-10-09T09:00:15.291Z,981.62
2017-10-09T09:01:15.205Z,981.60
2017-10-09T09:03:08.362Z,981.66
2017-10-09T09:04:07.978Z,981.60
2017-10-09T09:06:00.593Z,981.63
2017-10-09T09:07:00.511Z,981.60
2017-10-09T09:08:53.860Z,981.56
2017-10-09T09:09:53.485Z,981.56
2017-10-09T09:11:46.383Z,981.62
2017-10-09T09:12:46.169Z,981.61
2017-10-09T09:14:38.990Z,981.62
2017-10-09T09:15:38.848Z,981.59
2017-10-09T09:17:31.613Z,981.58
2017-10-09T09:18:31.491Z,981.57
2017-10-09T09:20:24.385Z,981.62
2017-10-09T09:21:24.262Z,981.61
2017-10-09T09:23:17.053Z,981.60
2017-10-09T09:24:16.930Z,981.58
2017-10-09T09:26:09.789Z,981.60
2017-10-09T09:27:09.605Z,981.58
2017-10-09T09:29:02.389Z,981.59
2017-10-09T09:30:02.315Z,981.62
2017-10-09T09:31:55.230Z,981.62
2017-10-09T09:32:55.142Z,981.60
2017-10-09T09:34:55.091Z,981.55
2017-10-09T09:35:50.359Z,981.59
2017-10-09T09:36:49.019Z,981.59
2017-10-09T09:37:48.935Z,981.57
2017-10-09T09:38:48.871Z,981.58
2017-10-09T09:39:48.819Z,981.58
2017-10-09T09:40:48.708Z,981.57
2017-10-09T09:41:48.905Z,981.58
2017-10-09T09:42:48.621Z,981.57
2017-10-09T09:43:48.479Z,981.58
2017-10-09T09:44:48.408Z,981.64
2017-10-09T09:45:48.330Z,981.62
2017-10-09T09:46:48.253Z,981.60
2017-10-09T09:47:48.206Z,981.62
2017-10-09T09:48:48.418Z,981.61
2017-10-09T09:49:48.117Z,981.61
2017-10-09T09:50:48.029Z,981.62
2017-10-09T09:51:48.414Z,981.58
2017-10-09T09:52:47.797Z,981.61
2017-10-09T09:53:47.834Z,981.63
2017-10-09T09:54:47.724Z,981.61
2017-10-09T09:55:47.615Z,981.62
2017-10-09T09:56:47.682Z,981.64
2017-10-09T09:57:47.421Z,981.62
2017-10-09T09:58:47.714Z,981.62
2017-10-09T09:59:47.269Z,981.66
2017-10-09T10:00:47.194Z,981.59
2017-10-09T10:01:47.149Z,981.61
2017-10-09T10:02:47.103Z,981.59
2017-10-09T10:03:46.977Z,981.57
2017-10-09T10:04:47.063Z,981.55
2017-10-09T10:05:46.965Z,981.57
2017-10-09T10:06:46.731Z,981.58
2017-10-09T10:07:46.675Z,981.54
2017-10-09T10:08:46.609Z,981.54
2017-10-09T10:09:46.513Z,981.49
2017-10-09T10:10:46.425Z,981.54
2017-10-09T10:11:46.368Z,981.52
2017-10-09T10:12:46.335Z,981.53
2017-10-09T10:13:46.201Z,981.50
2017-10-09T10:14:46.190Z,981.57
2017-10-09T10:15:46.316Z,981.53
2017-10-09T10:16:45.972Z,981.53
2017-10-09T10:17:45.902Z,981.53
2017-10-09T10:18:45.827Z,981.60
2017-10-09T10:19:45.764Z,981.61
2017-10-09T10:20:45.785Z,981.57
2017-10-09T10:21:45.685Z,981.61
2017-10-09T10:22:45.522Z,981.63
2017-10-09T10:23:45.450Z,981.63
2017-10-09T10:24:45.379Z,981.67
2017-10-09T10:25:45.457Z,981.68
2017-10-09T10:26:45.470Z,981.64
2017-10-09T10:27:45.268Z,981.64
2017-10-09T10:28:45.066Z,981.69
2017-10-09T10:29:46.140Z,981.68
2017-10-09T10:30:44.913Z,981.66
2017-10-09T10:31:45.232Z,981.66
2017-10-09T10:32:44.762Z,981.63
2017-10-09T10:33:44.707Z,981.65
2017-10-09T10:34:44.614Z,981.65
2017-10-09T10:35:44.711Z,981.65
2017-10-09T10:36:44.963Z,981.61
2017-10-09T10:37:44.456Z,981.64
2017-10-09T10:38:44.309Z,981.64
2017-10-09T10:39:44.441Z,981.63
2017-10-09T10:40:44.446Z,981.61
2017-10-09T10:41:44.076Z,981.65
2017-10-09T10:42:44.002Z,981.62
2017-10-09T10:43:43.949Z,981.61
2017-10-09T10:44:44.058Z,981.63
2017-10-09T10:45:43.773Z,981.61
2017-10-09T10:46:43.918Z,981.65
2017-10-09T10:47:43.701Z,981.62
2017-10-09T10:48:43.562Z,981.66
2017-10-09T10:49:43.470Z,981.62
2017-10-09T10:50:43.417Z,981.57
2017-10-09T10:51:43.686Z,981.58
2017-10-09T10:52:43.350Z,981.57
2017-10-09T10:53:43.353Z,981.57
2017-10-09T10:54:43.103Z,981.57
2017-10-09T10:55:43.346Z,981.62
2017-10-09T10:56:43.970Z,981.56
2017-10-09T10:57:42.949Z,981.58
2017-10-09T10:58:42.917Z,981.60
2017-10-09T10:59:42.895Z,981.58
2017-10-09T11:00:43.113Z,981.58
2017-10-09T11:01:42.758Z,981.57
2017-10-09T11:02:42.779Z,981.51
2017-10-09T11:03:42.589Z,981.57
2017-10-09T11:04:42.382Z,981.54
2017-10-09T11:05:42.252Z,981.48
2017-10-09T11:06:42.969Z,981.43
2017-10-09T11:07:42.328Z,981.45
2017-10-09T11:08:42.622Z,981.47
2017-10-09T11:09:42.723Z,981.46
2017-10-09T11:10:41.937Z,981.45
2017-10-09T11:11:41.801Z,981.40
2017-10-09T11:12:41.926Z,981.41
2017-10-09T11:13:41.829Z,981.44
2017-10-09T11:14:41.861Z,981.44
2017-10-09T11:15:42.561Z,981.46
2017-10-09T11:16:41.720Z,981.46
2017-10-09T11:17:41.457Z,981.43
2017-10-09T11:18:41.480Z,981.46
2017-10-09T11:19:41.270Z,981.44
2017-10-09T11:20:41.263Z,981.43
2017-10-09T11:21:41.064Z,981.41
2017-10-09T11:22:41.294Z,981.41
2017-10-09T11:23:41.018Z,981.39
2017-10-09T11:24:40.828Z,981.40
2017-10-09T11:25:40.763Z,981.41
2017-10-09T11:26:40.805Z,981.42
2017-10-09T11:27:40.805Z,981.40
2017-10-09T11:28:40.907Z,981.41
2017-10-09T11:29:40.610Z,981.39
2017-10-09T11:30:40.423Z,981.37
2017-10-09T11:31:40.799Z,981.32
2017-10-09T11:32:40.428Z,981.30
2017-10-09T11:33:40.453Z,981.30
2017-10-09T11:34:40.426Z,981.31
2017-10-09T11:35:40.245Z,981.37
2017-10-09T11:36:39.920Z,981.36
2017-10-09T11:37:39.839Z,981.33
2017-10-09T11:38:39.877Z,981.34
2017-10-09T11:39:39.756Z,981.36
2017-10-09T11:40:39.639Z,981.36
2017-10-09T11:41:40.223Z,981.32
2017-10-09T11:42:39.534Z,981.29
2017-10-09T11:43:39.480Z,981.30
2017-10-09T11:44:39.595Z,981.28
2017-10-09T11:45:39.241Z,981.26
2017-10-09T11:46:39.167Z,981.28
2017-10-09T11:47:39.096Z,981.26
2017-10-09T11:48:39.215Z,981.27
2017-10-09T11:49:38.952Z,981.30
2017-10-09T11:50:38.866Z,981.29
2017-10-09T11:51:38.924Z,981.25
2017-10-09T11:52:38.841Z,981.25
2017-10-09T11:53:38.639Z,981.22
2017-10-09T11:54:38.661Z,981.25
2017-10-09T11:55:38.528Z,981.22
2017-10-09T11:56:38.409Z,981.23
2017-10-09T11:57:38.490Z,981.19
2017-10-09T11:58:38.271Z,981.17
2017-10-09T11:59:38.182Z,981.20
2017-10-09T12:00:38.277Z,981.19
2017-10-09T12:01:38.030Z,981.21
2017-10-09T12:02:37.974Z,981.19
2017-10-09T12:03:38.001Z,981.20
2017-10-09T12:04:38.086Z,981.24
2017-10-09T12:05:37.746Z,981.24
2017-10-09T12:06:38.008Z,981.22
2017-10-09T12:07:37.578Z,981.19
2017-10-09T12:08:37.539Z,981.19
2017-10-09T12:09:37.927Z,981.19
2017-10-09T12:10:39.118Z,981.17
2017-10-09T12:11:37.964Z,981.24
2017-10-09T12:12:40.040Z,981.23
2017-10-09T12:13:37.331Z,981.24
2017-10-09T12:14:37.084Z,981.23
2017-10-09T12:15:37.009Z,981.22
2017-10-09T12:16:36.898Z,981.25
2017-10-09T12:17:38.661Z,981.23
2017-10-09T12:18:36.852Z,981.23
2017-10-09T12:19:36.672Z,981.23
2017-10-09T12:20:36.994Z,981.22
2017-10-09T12:21:36.543Z,981.21
2017-10-09T12:22:36.447Z,981.21
2017-10-09T12:23:36.398Z,981.23
2017-10-09T12:24:36.322Z,981.25
2017-10-09T12:25:36.252Z,981.23
2017-10-09T12:26:36.136Z,981.21
2017-10-09T12:27:36.317Z,981.16
2017-10-09T12:28:36.245Z,981.16
2017-10-09T12:29:35.910Z,981.14
2017-10-09T12:30:35.885Z,981.17
2017-10-09T12:31:35.882Z,981.14
2017-10-09T12:32:35.698Z,981.15
2017-10-09T12:33:35.617Z,981.15
2017-10-09T12:34:35.535Z,981.13
2017-10-09T12:35:35.532Z,981.16
2017-10-09T12:36:35.402Z,981.13
2017-10-09T12:37:35.300Z,981.12
2017-10-09T12:38:35.228Z,981.16
2017-10-09T12:39:35.149Z,981.14
2017-10-09T12:40:35.199Z,981.14
2017-10-09T12:41:35.054Z,981.10
2017-10-09T12:42:35.009Z,981.15
2017-10-09T12:43:34.868Z,981.10
2017-10-09T12:44:34.772Z,981.10
2017-10-09T12:45:34.783Z,981.08
2017-10-09T12:46:34.625Z,981.12
2017-10-09T12:47:34.589Z,981.07
2017-10-09T12:48:34.490Z,981.06
2017-10-09T12:49:34.481Z,981.09
2017-10-09T12:50:34.400Z,981.03
2017-10-09T12:51:34.321Z,981.07
2017-10-09T12:52:34.415Z,981.07
2017-10-09T12:53:34.100Z,981.06
2017-10-09T12:54:34.527Z,981.09
2017-10-09T12:55:34.027Z,981.14
2017-10-09T12:56:33.933Z,981.10
2017-10-09T12:57:33.825Z,981.11
2017-10-09T12:58:33.911Z,981.11
2017-10-09T12:59:33.889Z,981.10
2017-10-09T13:00:33.600Z,981.10
2017-10-09T13:01:33.758Z,981.06
2017-10-09T13:02:33.564Z,981.06
2017-10-09T13:03:33.549Z,981.07
2017-10-09T13:04:33.484Z,981.11
2017-10-09T13:05:33.345Z,981.03
2017-10-09T13:06:33.291Z,981.05
2017-10-09T13:07:33.659Z,981.05
2017-10-09T13:08:32.982Z,981.04
2017-10-09T13:09:33.206Z,981.05
2017-10-09T13:10:32.960Z,981.05
2017-10-09T13:11:32.913Z,981.01
2017-10-09T13:12:32.709Z,981.03
2017-10-09T13:13:32.613Z,981.00
2017-10-09T13:14:32.558Z,981.02
2017-10-09T13:15:32.509Z,980.99
2017-10-09T13:16:32.385Z,981.00
2017-10-09T13:17:32.325Z,980.98
2017-10-09T13:18:34.059Z,980.94
2017-10-09T13:19:34.059Z,980.93
2017-10-09T13:20:32.091Z,980.95
2017-10-09T13:21:32.017Z,980.97
2017-10-09T13:22:31.943Z,980.94
2017-10-09T13:23:31.870Z,980.91
2017-10-09T13:24:31.796Z,980.93
2017-10-09T13:25:31.722Z,980.89
2017-10-09T13:26:31.649Z,980.89
2017-10-09T13:27:31.588Z,980.93
2017-10-09T13:28:31.502Z,980.93
2017-10-09T13:29:31.428Z,980.92
2017-10-09T13:30:31.357Z,980.96
2017-10-09T13:31:31.378Z,980.89
2017-10-09T13:32:31.207Z,980.90
2017-10-09T13:33:31.133Z,980.89
2017-10-09T13:34:31.060Z,980.92
2017-10-09T13:35:30.985Z,980.87
2017-10-09T13:36:30.911Z,980.84
2017-10-09T13:37:30.836Z,980.92
2017-10-09T13:38:30.760Z,980.88
2017-10-09T13:39:30.686Z,980.85
2017-10-09T13:40:30.616Z,980.85
2017-10-09T13:41:30.536Z,980.83
2017-10-09T13:42:30.462Z,980.86
2017-10-09T13:43:30.387Z,980.82
2017-10-09T13:44:30.313Z,980.84
2017-10-09T13:45:30.237Z,980.84
2017-10-09T13:46:30.161Z,980.79
2017-10-09T13:47:30.085Z,980.81
2017-10-09T13:48:30.013Z,980.81
2017-10-09T13:49:29.936Z,980.73
2017-10-09T13:50:29.864Z,980.72
2017-10-09T13:51:29.787Z,980.71
2017-10-09T13:52:29.710Z,980.72
2017-10-09T13:53:29.635Z,980.71
2017-10-09T13:54:29.560Z,980.72
2017-10-09T13:55:29.488Z,980.69
2017-10-09T13:56:29.409Z,980.70
2017-10-09T13:57:29.334Z,980.68
2017-10-09T13:58:29.258Z,980.72
2017-10-09T13:59:29.182Z,980.73
2017-10-09T14:00:29.108Z,980.72
2017-10-09T14:01:29.044Z,980.70
2017-10-09T14:02:28.955Z,980.70
2017-10-09T14:03:28.879Z,980.71
2017-10-09T14:04:28.806Z,980.75
2017-10-09T14:05:28.732Z,980.72
2017-10-09T14:06:28.660Z,980.70
2017-10-09T14:07:28.578Z,980.69
2017-10-09T14:08:28.507Z,980.67
2017-10-09T14:09:28.425Z,980.65
2017-10-09T14:10:28.350Z,980.65
2017-10-09T14:11:28.276Z,980.70
2017-10-09T14:12:28.198Z,980.68
2017-10-09T14:13:28.122Z,980.62
2017-10-09T14:14:28.046Z,980.67
2017-10-09T14:15:27.972Z,980.67
2017-10-09T14:16:27.896Z,980.67
2017-10-09T14:17:27.820Z,980.68
2017-10-09T14:18:27.744Z,980.66
2017-10-09T14:19:27.668Z,980.68
2017-10-09T14:20:27.595Z,980.65
2017-10-09T14:21:27.516Z,980.65
2017-10-09T14:22:27.441Z,980.62
2017-10-09T14:23:27.366Z,980.60
2017-10-09T14:24:27.290Z,980.67
2017-10-09T14:25:27.215Z,980.60
2017-10-09T14:26:27.141Z,980.66
2017-10-09T14:27:27.062Z,980.67
2017-10-09T14:28:26.989Z,980.66
2017-10-09T14:29:26.912Z,980.62
2017-10-09T14:30:26.880Z,980.60
2017-10-09T14:40:26.083Z,980.60
2017-10-09T14:41:26.007Z,980.56
2017-10-09T14:42:25.930Z,980.58
2017-10-09T14:43:25.855Z,980.52
2017-10-09T14:44:25.781Z,980.53
2017-10-09T14:45:25.704Z,980.54
2017-10-09T14:46:25.629Z,980.53
2017-10-09T14:47:25.553Z,980.58
2017-10-09T14:48:25.480Z,980.56
2017-10-09T14:49:25.401Z,980.54
2017-10-09T14:50:25.329Z,980.51
2017-10-09T14:51:25.378Z,980.54
2017-10-09T14:52:25.176Z,980.56
2017-10-09T14:53:25.098Z,980.51
2017-10-09T14:54:25.024Z,980.52
2017-10-09T14:55:24.949Z,980.55
2017-10-09T14:56:24.887Z,980.53
2017-10-09T14:57:24.797Z,980.50
2017-10-09T14:58:24.722Z,980.50
2017-10-09T14:59:24.645Z,980.56
2017-10-09T15:00:24.573Z,980.49
2017-10-09T15:01:24.492Z,980.47
2017-10-09T15:02:24.419Z,980.44
2017-10-09T15:03:24.344Z,980.51
2017-10-09T15:04:24.266Z,980.52
2017-10-09T15:05:24.195Z,980.50
2017-10-09T15:06:24.167Z,980.49
2017-10-09T15:07:24.051Z,980.50
2017-10-09T15:08:23.963Z,980.50
2017-10-09T15:09:23.886Z,980.49
2017-10-09T15:10:23.810Z,980.50
2017-10-09T15:11:23.735Z,980.51
2017-10-09T15:12:23.662Z,980.44
2017-10-09T15:13:23.582Z,980.46
2017-10-09T15:14:23.507Z,980.44
2017-10-09T15:15:23.430Z,980.40
2017-10-09T15:16:23.355Z,980.46
2017-10-09T15:17:23.280Z,980.44
2017-10-09T15:18:23.209Z,980.47
2017-10-09T15:19:23.132Z,980.47
2017-10-09T15:20:23.051Z,980.47
2017-10-09T15:21:22.976Z,980.47
2017-10-09T15:22:22.899Z,980.45
2017-10-09T15:23:22.823Z,980.48
2017-10-09T15:24:22.751Z,980.52
2017-10-09T15:25:22.671Z,980.47
2017-10-09T15:26:22.595Z,980.48
2017-10-09T15:27:22.518Z,980.53
2017-10-09T15:28:22.449Z,980.47
2017-10-09T15:29:22.366Z,980.45
2017-10-09T15:30:22.291Z,980.47
2017-10-09T15:31:22.213Z,980.48
2017-10-09T15:32:22.138Z,980.49